createdAt,value
2017-12-05T00:00:06.282Z,43.60
2017-12-05T00:01:06.306Z,44.70
2017-12-05T00:02:06.222Z,43.80
2017-12-05T00:03:06.217Z,42.60
2017-12-05T00:04:06.175Z,44.10
2017-12-05T00:05:06.145Z,44.10
2017-12-05T00:06:06.132Z,42.80
2017-12-05T00:07:06.098Z,43.30
2017-12-05T00:08:06.147Z,42.70
2017-12-05T00:09:06.039Z,44.90
2017-12-05T00:10:06.055Z,41.50
2017-12-05T00:11:05.992Z,42.80
2017-12-05T00:12:06.994Z,43.90
2017-12-05T00:13:05.928Z,42.50
2017-12-05T00:14:05.981Z,41.70
2017-12-05T00:15:05.885Z,45.20
2017-12-05T00:16:05.887Z,45.00
2017-12-05T00:17:05.829Z,44.90
2017-12-05T00:18:05.903Z,45.00
2017-12-05T00:19:05.769Z,45.10
2017-12-05T00:20:05.814Z,47.00
2017-12-05T00:21:05.723Z,44.10
2017-12-05T00:22:06.744Z,45.90
2017-12-05T00:23:05.665Z,44.80
2017-12-05T00:24:05.729Z,47.20
2017-12-05T00:25:05.613Z,44.50
2017-12-05T00:26:05.641Z,45.40
2017-12-05T00:27:05.557Z,46.20
2017-12-05T00:28:05.551Z,46.60
2017-12-05T00:29:05.500Z,46.70
2017-12-05T00:30:05.562Z,47.10
2017-12-05T00:31:05.447Z,46.90
2017-12-05T00:32:05.473Z,49.90
2017-12-05T00:33:05.395Z,48.70
2017-12-05T00:34:05.502Z,52.40
2017-12-05T00:35:05.347Z,48.70
2017-12-05T00:36:05.320Z,53.00
2017-12-05T00:37:05.290Z,50.00
2017-12-05T00:38:05.302Z,48.90
2017-12-05T00:39:05.240Z,53.80
2017-12-05T00:40:05.318Z,56.00
2017-12-05T00:41:05.182Z,57.40
2017-12-05T00:42:06.248Z,56.90
2017-12-05T00:43:05.136Z,58.50
2017-12-05T00:44:05.140Z,56.20
2017-12-05T00:45:05.073Z,58.80
2017-12-05T00:46:05.151Z,57.80
2017-12-05T00:47:05.024Z,57.90
2017-12-05T00:48:05.058Z,58.90
2017-12-05T00:49:05.065Z,56.10
2017-12-05T00:50:04.951Z,57.60
2017-12-05T00:51:04.972Z,56.70
2017-12-05T00:52:04.887Z,56.10
2017-12-05T00:53:04.884Z,56.80
2017-12-05T00:54:04.845Z,57.60
2017-12-05T00:55:04.804Z,58.20
2017-12-05T00:56:04.799Z,59.70
2017-12-05T00:57:04.757Z,59.90
2017-12-05T00:58:04.813Z,57.90
2017-12-05T00:59:04.697Z,60.70
2017-12-05T01:00:04.722Z,61.70
2017-12-05T01:01:04.651Z,63.80
2017-12-05T01:02:04.740Z,61.10
2017-12-05T01:03:04.593Z,62.50
2017-12-05T01:04:04.642Z,61.10
2017-12-05T01:05:04.658Z,60.90
2017-12-05T01:06:04.533Z,61.60
2017-12-05T01:07:04.560Z,59.80
2017-12-05T01:08:04.468Z,62.30
2017-12-05T01:09:04.469Z,58.10
2017-12-05T01:10:04.408Z,60.20
2017-12-05T01:11:04.479Z,61.10
2017-12-05T01:12:04.349Z,57.70
2017-12-05T01:13:04.393Z,54.60
2017-12-05T01:14:04.302Z,54.10
2017-12-05T01:15:04.304Z,55.30
2017-12-05T01:16:04.240Z,49.30
2017-12-05T01:17:04.319Z,51.10
2017-12-05T01:18:04.188Z,52.90
2017-12-05T01:19:04.166Z,53.60
2017-12-05T01:20:04.140Z,52.30
2017-12-05T01:21:04.139Z,53.80
2017-12-05T01:22:04.096Z,49.70
2017-12-05T01:23:04.154Z,51.20
2017-12-05T01:24:04.027Z,51.50
2017-12-05T01:25:04.008Z,52.10
2017-12-05T01:26:04.066Z,50.10
2017-12-05T01:27:03.949Z,51.50
2017-12-05T01:28:03.976Z,49.10
2017-12-05T01:29:03.889Z,48.00
2017-12-05T01:30:03.988Z,47.20
2017-12-05T01:31:03.843Z,46.00
2017-12-05T01:32:04.920Z,44.50
2017-12-05T01:33:03.902Z,41.00
2017-12-05T01:34:03.766Z,46.60
2017-12-05T01:35:03.820Z,45.30
2017-12-05T01:36:03.711Z,46.30
2017-12-05T01:37:03.717Z,43.60
2017-12-05T01:38:03.659Z,42.90
2017-12-05T01:39:03.631Z,44.60
2017-12-05T01:40:03.634Z,42.70
2017-12-05T01:41:03.577Z,41.40
2017-12-05T01:42:03.651Z,43.20
2017-12-05T01:43:03.517Z,44.80
2017-12-05T01:44:03.563Z,44.60
2017-12-05T01:45:03.463Z,45.80
2017-12-05T01:46:03.467Z,46.30
2017-12-05T01:47:03.415Z,45.30
2017-12-05T01:48:03.483Z,49.20
2017-12-05T01:49:03.383Z,47.50
2017-12-05T01:50:03.335Z,45.90
2017-12-05T01:51:03.398Z,46.40
2017-12-05T01:52:03.282Z,42.80
2017-12-05T01:53:03.307Z,44.10
2017-12-05T01:54:03.220Z,42.50
2017-12-05T01:55:03.201Z,37.60
2017-12-05T01:56:03.219Z,40.40
2017-12-05T01:57:03.146Z,41.20
2017-12-05T01:58:03.133Z,40.10
2017-12-05T01:59:03.141Z,41.20
2017-12-05T02:00:03.060Z,37.70
2017-12-05T02:01:03.155Z,39.40
2017-12-05T02:02:03.017Z,39.20
2017-12-05T02:03:03.067Z,39.10
2017-12-05T02:04:02.953Z,37.30
2017-12-05T02:05:02.933Z,39.00
2017-12-05T02:06:02.982Z,40.40
2017-12-05T02:07:02.870Z,42.60
2017-12-05T02:08:02.887Z,40.50
2017-12-05T02:09:02.894Z,38.90
2017-12-05T02:10:02.791Z,39.30
2017-12-05T02:11:02.802Z,40.30
2017-12-05T02:12:02.743Z,39.40
2017-12-05T02:13:02.816Z,41.40
2017-12-05T02:14:02.691Z,41.70
2017-12-05T02:15:02.658Z,40.70
2017-12-05T02:16:02.732Z,39.60
2017-12-05T02:17:02.626Z,39.50
2017-12-05T02:18:02.643Z,39.40
2017-12-05T02:19:02.558Z,42.10
2017-12-05T02:20:02.576Z,40.40
2017-12-05T02:21:02.494Z,37.90
2017-12-05T02:22:02.562Z,39.80
2017-12-05T02:23:02.449Z,38.50
2017-12-05T02:24:02.476Z,38.50
2017-12-05T02:25:02.478Z,40.30
2017-12-05T02:26:02.361Z,36.60
2017-12-05T02:27:02.387Z,40.50
2017-12-05T02:28:02.303Z,36.60
2017-12-05T02:29:02.297Z,39.10
2017-12-05T02:30:02.258Z,38.70
2017-12-05T02:31:02.320Z,36.60
2017-12-05T02:32:02.198Z,37.20
2017-12-05T02:33:02.226Z,35.90
2017-12-05T02:34:02.149Z,32.90
2017-12-05T02:35:02.230Z,35.90
2017-12-05T02:36:02.092Z,36.10
2017-12-05T02:37:02.144Z,35.30
2017-12-05T02:38:02.044Z,34.10
2017-12-05T02:39:02.012Z,35.00
2017-12-05T02:40:01.995Z,34.50
2017-12-05T02:41:02.069Z,33.60
2017-12-05T02:42:01.938Z,33.90
2017-12-05T02:43:01.975Z,32.40
2017-12-05T02:44:01.882Z,34.20
2017-12-05T02:45:01.855Z,32.60
2017-12-05T02:46:01.935Z,33.20
2017-12-05T02:47:01.796Z,31.50
2017-12-05T02:48:01.803Z,32.10
2017-12-05T02:49:01.742Z,30.20
2017-12-05T02:50:01.731Z,31.90
2017-12-05T02:51:01.713Z,33.30
2017-12-05T02:52:01.666Z,30.80
2017-12-05T02:53:01.729Z,31.30
2017-12-05T02:54:01.614Z,32.00
2017-12-05T02:55:01.579Z,31.80
2017-12-05T02:56:01.555Z,31.90
2017-12-05T02:57:01.551Z,30.80
2017-12-05T02:58:01.504Z,33.00
2017-12-05T02:59:01.560Z,29.80
2017-12-05T03:00:01.454Z,32.70
2017-12-05T03:01:01.471Z,29.60
2017-12-05T03:02:01.392Z,29.30
2017-12-05T03:03:01.486Z,31.20
2017-12-05T03:04:01.340Z,30.60
2017-12-05T03:05:01.316Z,31.00
2017-12-05T03:06:01.330Z,31.40
2017-12-05T03:07:01.303Z,32.10
2017-12-05T03:08:01.231Z,31.60
2017-12-05T03:09:01.315Z,30.60
2017-12-05T03:10:01.181Z,29.50
2017-12-05T03:11:01.159Z,30.50
2017-12-05T03:12:01.125Z,32.00
2017-12-05T03:13:01.136Z,29.40
2017-12-05T03:14:01.073Z,31.30
2017-12-05T03:15:01.147Z,29.30
2017-12-05T03:16:01.025Z,31.80
2017-12-05T03:17:01.060Z,32.00
2017-12-05T03:18:00.966Z,32.10
2017-12-05T03:19:00.972Z,31.20
2017-12-05T03:20:00.912Z,31.50
2017-12-05T03:21:00.981Z,32.10
2017-12-05T03:22:00.855Z,30.30
2017-12-05T03:23:00.890Z,32.40
2017-12-05T03:24:00.901Z,31.30
2017-12-05T03:25:00.772Z,29.30
2017-12-05T03:26:00.805Z,30.60
2017-12-05T03:27:00.725Z,30.70
2017-12-05T03:28:00.713Z,29.50
2017-12-05T03:29:00.673Z,28.90
2017-12-05T03:30:00.640Z,29.70
2017-12-05T03:31:00.628Z,29.10
2017-12-05T03:32:00.588Z,29.30
2017-12-05T03:33:00.646Z,29.30
2017-12-05T03:34:00.534Z,27.00
2017-12-05T03:35:00.510Z,28.70
2017-12-05T03:36:00.560Z,28.60
2017-12-05T03:37:00.461Z,28.20
2017-12-05T03:38:00.471Z,28.90
2017-12-05T03:39:00.400Z,27.70
2017-12-05T03:40:00.371Z,29.10
2017-12-05T03:41:00.351Z,27.90
2017-12-05T03:42:00.393Z,28.40
2017-12-05T03:43:00.291Z,26.90
2017-12-05T03:44:00.305Z,26.40
2017-12-05T03:45:00.311Z,28.00
2017-12-05T03:46:00.213Z,26.40
2017-12-05T03:47:00.221Z,27.30
2017-12-05T03:48:00.154Z,26.20
2017-12-05T03:49:00.234Z,26.20
2017-12-05T03:50:00.102Z,27.60
2017-12-05T03:51:00.142Z,27.00
2017-12-05T03:52:00.058Z,26.80
2017-12-05T03:53:00.050Z,26.20
2017-12-05T03:53:59.999Z,25.50
2017-12-05T03:54:59.973Z,27.50
2017-12-05T03:55:59.947Z,26.00
2017-12-05T03:56:59.971Z,25.30
2017-12-05T03:57:59.902Z,26.00
2017-12-05T03:58:59.881Z,26.20
2017-12-05T03:59:59.845Z,26.70
2017-12-05T04:00:59.804Z,26.50
2017-12-05T04:01:59.901Z,25.40
2017-12-05T04:02:59.763Z,26.30
2017-12-05T04:03:59.810Z,26.50
2017-12-05T04:04:59.709Z,28.40
2017-12-05T04:05:59.721Z,27.60
2017-12-05T04:06:59.646Z,27.10
2017-12-05T04:07:59.727Z,27.90
2017-12-05T04:08:59.608Z,28.10
2017-12-05T04:09:59.638Z,27.80
2017-12-05T04:10:59.546Z,27.70
2017-12-05T04:11:59.509Z,28.30
2017-12-05T04:12:59.491Z,28.70
2017-12-05T04:13:59.562Z,26.20
2017-12-05T04:14:59.437Z,25.90
2017-12-05T04:15:59.474Z,27.00
2017-12-05T04:16:59.377Z,27.40
2017-12-05T04:17:59.365Z,25.70
2017-12-05T04:18:59.323Z,26.00
2017-12-05T04:20:00.317Z,27.60
2017-12-05T04:20:59.289Z,26.10
2017-12-05T04:21:59.307Z,27.60
2017-12-05T04:22:59.218Z,26.50
2017-12-05T04:23:59.197Z,24.40
2017-12-05T04:24:59.223Z,25.20
2017-12-05T04:25:59.135Z,26.00
2017-12-05T04:26:59.133Z,26.10
2017-12-05T04:27:59.091Z,25.00
2017-12-05T04:28:59.143Z,25.50
2017-12-05T04:29:59.029Z,24.00
2017-12-05T04:30:59.057Z,26.00
2017-12-05T04:31:58.978Z,26.50
2017-12-05T04:32:58.961Z,25.70
2017-12-05T04:33:58.921Z,26.60
2017-12-05T04:34:58.975Z,26.30
2017-12-05T04:35:58.867Z,27.10
2017-12-05T04:36:58.884Z,26.80
2017-12-05T04:37:58.813Z,27.80
2017-12-05T04:38:58.898Z,30.00
2017-12-05T04:39:58.758Z,30.20
2017-12-05T04:40:58.809Z,29.30
2017-12-05T04:41:58.713Z,31.30
2017-12-05T04:42:58.714Z,31.90
2017-12-05T04:43:58.650Z,31.10
2017-12-05T04:44:58.743Z,28.00
2017-12-05T04:45:58.617Z,30.30
2017-12-05T04:46:58.573Z,34.40
2017-12-05T04:47:58.544Z,32.50
2017-12-05T04:48:58.552Z,30.60
2017-12-05T04:49:58.498Z,33.20
2017-12-05T04:50:58.562Z,33.10
2017-12-05T04:51:58.447Z,33.90
2017-12-05T04:52:58.471Z,31.30
2017-12-05T04:53:58.389Z,32.20
2017-12-05T04:54:58.379Z,33.10
2017-12-05T04:55:58.328Z,31.30
2017-12-05T04:56:58.309Z,34.60
2017-12-05T04:57:58.276Z,34.00
2017-12-05T04:58:58.310Z,32.90
2017-12-05T04:59:58.224Z,34.00
2017-12-05T05:00:58.223Z,34.00
2017-12-05T05:01:58.172Z,33.90
2017-12-05T05:02:58.234Z,34.20
2017-12-05T05:03:58.123Z,32.80
2017-12-05T05:04:58.088Z,31.40
2017-12-05T05:05:58.144Z,33.40
2017-12-05T05:06:58.031Z,32.90
2017-12-05T05:07:58.052Z,33.40
2017-12-05T05:08:57.983Z,33.70
2017-12-05T05:09:57.959Z,33.00
2017-12-05T05:10:57.921Z,31.10
2017-12-05T05:11:57.976Z,33.80
2017-12-05T05:12:57.885Z,33.60
2017-12-05T05:13:57.886Z,32.70
2017-12-05T05:14:57.826Z,33.80
2017-12-05T05:15:57.795Z,35.70
2017-12-05T05:16:57.761Z,38.40
2017-12-05T05:17:57.810Z,35.60
2017-12-05T05:18:57.715Z,35.90
2017-12-05T05:19:57.717Z,35.60
2017-12-05T05:20:57.670Z,34.80
2017-12-05T05:21:57.623Z,35.50
2017-12-05T05:22:57.603Z,35.00
2017-12-05T05:23:57.640Z,36.80
2017-12-05T05:24:57.544Z,34.00
2017-12-05T05:25:57.562Z,36.80
2017-12-05T05:26:57.508Z,33.80
2017-12-05T05:27:57.474Z,34.70
2017-12-05T05:28:57.467Z,35.40
2017-12-05T05:29:57.444Z,36.40
2017-12-05T05:30:57.527Z,35.10
2017-12-05T05:31:57.359Z,37.60
2017-12-05T05:32:57.328Z,37.20
2017-12-05T05:33:57.303Z,37.70
2017-12-05T05:34:57.398Z,37.00
2017-12-05T05:35:57.245Z,38.10
2017-12-05T05:36:57.309Z,37.80
2017-12-05T05:37:57.198Z,38.40
2017-12-05T05:38:57.221Z,39.10
2017-12-05T05:39:57.139Z,40.50
2017-12-05T05:40:57.232Z,39.20
2017-12-05T05:41:57.092Z,37.10
2017-12-05T05:42:57.140Z,38.00
2017-12-05T05:43:57.030Z,38.90
2017-12-05T05:44:57.011Z,39.70
2017-12-05T05:45:56.985Z,38.50
2017-12-05T05:46:57.062Z,39.20
2017-12-05T05:47:56.920Z,39.30
2017-12-05T05:48:56.974Z,38.40
2017-12-05T05:49:56.878Z,37.80
2017-12-05T05:50:56.984Z,38.70
2017-12-05T05:51:56.820Z,38.50
2017-12-05T05:52:56.897Z,39.50
2017-12-05T05:53:56.759Z,40.30
2017-12-05T05:54:56.738Z,38.40
2017-12-05T05:55:56.707Z,41.30
2017-12-05T05:56:56.715Z,41.30
2017-12-05T05:57:56.657Z,39.30
2017-12-05T05:58:56.726Z,41.10
2017-12-05T05:59:56.600Z,43.60
2017-12-05T06:00:56.636Z,42.40
2017-12-05T06:01:56.542Z,41.10
2017-12-05T06:02:56.530Z,45.00
2017-12-05T06:03:56.500Z,43.60
2017-12-05T06:04:56.474Z,46.10
2017-12-05T06:05:56.439Z,43.20
2017-12-05T06:06:56.418Z,42.50
2017-12-05T06:07:56.389Z,42.00
2017-12-05T06:08:56.360Z,45.90
2017-12-05T06:09:56.336Z,46.40
2017-12-05T06:10:56.321Z,44.30
2017-12-05T06:11:56.278Z,45.60
2017-12-05T06:12:56.264Z,45.50
2017-12-05T06:13:56.227Z,44.60
2017-12-05T06:14:56.198Z,44.10
2017-12-05T06:15:56.172Z,48.70
2017-12-05T06:16:56.150Z,45.00
2017-12-05T06:17:56.117Z,44.60
2017-12-05T06:18:56.092Z,43.20
2017-12-05T06:19:56.063Z,46.20
2017-12-05T06:20:56.038Z,47.80
2017-12-05T06:21:56.010Z,43.30
2017-12-05T06:22:55.984Z,45.20
2017-12-05T06:23:55.956Z,44.80
2017-12-05T06:24:55.934Z,44.40
2017-12-05T06:25:55.907Z,46.00
2017-12-05T06:26:55.876Z,45.00
2017-12-05T06:27:55.846Z,46.70
2017-12-05T06:28:55.821Z,46.80
2017-12-05T06:29:55.799Z,45.10
2017-12-05T06:30:55.761Z,46.70
2017-12-05T06:31:56.740Z,42.80
2017-12-05T06:32:55.706Z,44.70
2017-12-05T06:33:55.693Z,45.30
2017-12-05T06:34:55.649Z,44.90
2017-12-05T06:35:55.636Z,45.30
2017-12-05T06:36:55.598Z,47.70
2017-12-05T06:37:55.579Z,45.90
2017-12-05T06:38:55.548Z,49.20
2017-12-05T06:39:55.519Z,47.20
2017-12-05T06:40:55.505Z,44.70
2017-12-05T06:41:55.461Z,46.60
2017-12-05T06:42:55.436Z,47.70
2017-12-05T06:43:55.418Z,45.60
2017-12-05T06:44:55.386Z,46.20
2017-12-05T06:45:55.352Z,46.10
2017-12-05T06:46:55.336Z,49.90
2017-12-05T06:47:55.299Z,50.80
2017-12-05T06:48:55.279Z,50.90
2017-12-05T06:49:55.251Z,50.20
2017-12-05T06:50:55.233Z,48.80
2017-12-05T06:51:55.192Z,50.40
2017-12-05T06:52:55.177Z,53.50
2017-12-05T06:53:55.138Z,54.60
2017-12-05T06:54:55.117Z,51.50
2017-12-05T06:55:55.099Z,53.10
2017-12-05T06:56:55.056Z,52.80
2017-12-05T06:57:55.040Z,52.10
2017-12-05T06:58:55.004Z,51.90
2017-12-05T06:59:55.988Z,54.50
2017-12-05T07:00:54.961Z,56.60
2017-12-05T07:01:54.924Z,57.00
2017-12-05T07:02:55.896Z,56.50
2017-12-05T07:03:54.875Z,58.50
2017-12-05T07:04:54.851Z,56.60
2017-12-05T07:05:54.823Z,55.90
2017-12-05T07:06:54.795Z,58.90
2017-12-05T07:07:54.774Z,59.40
2017-12-05T07:08:54.740Z,59.60
2017-12-05T07:09:54.714Z,58.60
2017-12-05T07:10:54.686Z,57.40
2017-12-05T07:11:55.653Z,57.40
2017-12-05T07:12:54.629Z,57.20
2017-12-05T07:13:54.609Z,58.50
2017-12-05T07:14:54.577Z,61.00
2017-12-05T07:15:54.551Z,58.20
2017-12-05T07:16:54.534Z,59.70
2017-12-05T07:17:54.501Z,59.20
2017-12-05T07:18:54.469Z,61.20
2017-12-05T07:19:54.438Z,57.80
2017-12-05T07:20:54.421Z,58.90
2017-12-05T07:21:54.388Z,61.70
2017-12-05T07:22:54.361Z,62.60
2017-12-05T07:23:54.328Z,54.90
2017-12-05T07:24:54.312Z,55.30
2017-12-05T07:25:54.285Z,56.40
2017-12-05T07:26:54.254Z,51.40
2017-12-05T07:27:54.232Z,58.50
2017-12-05T07:28:54.208Z,56.80
2017-12-05T07:29:54.172Z,56.40
2017-12-05T07:30:54.154Z,56.40
2017-12-05T07:31:54.115Z,56.30
2017-12-05T07:32:54.100Z,58.40
2017-12-05T07:33:54.065Z,57.40
2017-12-05T07:34:54.091Z,59.10
2017-12-05T07:35:54.006Z,60.50
2017-12-05T07:36:54.000Z,61.20
2017-12-05T07:37:53.954Z,58.90
2017-12-05T07:38:53.949Z,61.20
2017-12-05T07:39:53.903Z,61.20
2017-12-05T07:40:53.872Z,62.30
2017-12-05T07:41:53.841Z,66.50
2017-12-05T07:42:53.827Z,67.40
2017-12-05T07:43:53.788Z,65.20
2017-12-05T07:44:53.774Z,64.10
2017-12-05T07:45:53.738Z,66.30
2017-12-05T07:46:53.708Z,65.10
2017-12-05T07:47:53.685Z,66.50
2017-12-05T07:48:53.671Z,65.50
2017-12-05T07:49:53.630Z,64.50
2017-12-05T07:50:53.611Z,62.80
2017-12-05T07:51:53.581Z,65.50
2017-12-05T07:52:53.550Z,62.30
2017-12-05T07:53:53.530Z,61.50
2017-12-05T07:54:53.494Z,67.00
2017-12-05T07:55:53.475Z,68.30
2017-12-05T07:56:53.445Z,62.00
2017-12-05T07:57:53.428Z,64.30
2017-12-05T07:58:53.393Z,66.50
2017-12-05T07:59:53.369Z,67.10
2017-12-05T08:00:53.342Z,60.70
2017-12-05T08:01:53.341Z,62.80
2017-12-05T08:02:53.286Z,61.90
2017-12-05T08:03:53.260Z,63.90
2017-12-05T08:04:53.235Z,64.20
2017-12-05T08:05:53.199Z,67.40
2017-12-05T08:06:53.185Z,61.00
2017-12-05T08:07:53.144Z,62.70
2017-12-05T08:08:53.127Z,62.30
2017-12-05T08:09:53.089Z,63.40
2017-12-05T08:10:53.066Z,66.00
2017-12-05T08:11:54.037Z,63.60
2017-12-05T08:12:53.015Z,61.90
2017-12-05T08:13:52.986Z,61.90
2017-12-05T08:14:52.959Z,67.40
2017-12-05T08:15:52.928Z,61.80
2017-12-05T08:16:52.916Z,60.70
2017-12-05T08:17:52.890Z,63.20
2017-12-05T08:18:52.855Z,64.70
2017-12-05T08:19:52.836Z,63.70
2017-12-05T08:20:52.790Z,62.70
2017-12-05T08:21:52.771Z,60.40
2017-12-05T08:22:52.746Z,62.50
2017-12-05T08:23:52.718Z,60.80
2017-12-05T08:24:52.689Z,59.50
2017-12-05T08:25:52.665Z,61.70
2017-12-05T08:26:52.637Z,63.80
2017-12-05T08:27:52.614Z,62.50
2017-12-05T08:28:52.583Z,64.80
2017-12-05T08:29:52.554Z,63.20
2017-12-05T08:30:52.544Z,65.10
2017-12-05T08:31:52.500Z,63.00
2017-12-05T08:32:52.472Z,65.50
2017-12-05T08:33:52.458Z,62.00
2017-12-05T08:34:52.413Z,59.60
2017-12-05T08:35:52.402Z,60.30
2017-12-05T08:36:52.380Z,63.70
2017-12-05T08:37:52.349Z,64.30
2017-12-05T08:38:52.311Z,61.30
2017-12-05T08:39:52.296Z,62.30
2017-12-05T08:40:52.252Z,60.60
2017-12-05T08:41:53.236Z,62.00
2017-12-05T08:42:52.200Z,57.60
2017-12-05T08:43:52.184Z,61.20
2017-12-05T08:44:52.147Z,63.40
2017-12-05T08:45:52.126Z,61.40
2017-12-05T08:46:52.098Z,61.70
2017-12-05T08:47:52.070Z,62.00
2017-12-05T08:48:52.082Z,58.40
2017-12-05T08:49:52.015Z,59.20
2017-12-05T08:50:51.991Z,54.90
2017-12-05T08:51:51.960Z,56.70
2017-12-05T08:52:51.939Z,60.00
2017-12-05T08:53:51.904Z,59.50
2017-12-05T08:54:51.888Z,60.60
2017-12-05T08:55:51.851Z,57.20
2017-12-05T08:56:51.833Z,60.30
2017-12-05T08:57:51.797Z,61.10
2017-12-05T08:58:51.783Z,63.40
2017-12-05T08:59:51.744Z,62.30
2017-12-05T09:00:51.727Z,61.20
2017-12-05T09:01:51.687Z,59.00
2017-12-05T09:02:51.671Z,62.90
2017-12-05T09:03:51.642Z,60.70
2017-12-05T09:04:51.617Z,58.50
2017-12-05T09:05:51.591Z,57.00
2017-12-05T09:06:51.554Z,61.10
2017-12-05T09:07:51.539Z,59.90
2017-12-05T09:08:51.513Z,57.30
2017-12-05T09:09:51.485Z,65.20
2017-12-05T09:10:51.450Z,63.30
2017-12-05T09:11:51.420Z,58.20
2017-12-05T09:12:51.395Z,61.50
2017-12-05T09:13:51.375Z,65.70
2017-12-05T09:14:51.335Z,65.30
2017-12-05T09:15:51.317Z,64.20
2017-12-05T09:16:51.291Z,62.30
2017-12-05T09:17:51.272Z,62.60
2017-12-05T09:18:51.234Z,64.00
2017-12-05T09:19:51.210Z,61.80
2017-12-05T09:20:51.175Z,63.50
2017-12-05T09:21:52.155Z,59.20
2017-12-05T09:22:51.127Z,62.70
2017-12-05T09:23:51.108Z,63.30
2017-12-05T09:24:51.068Z,62.60
2017-12-05T09:25:51.043Z,62.80
2017-12-05T09:26:51.019Z,62.00
2017-12-05T09:27:50.999Z,60.80
2017-12-05T09:28:50.962Z,61.80
2017-12-05T09:29:50.947Z,61.10
2017-12-05T09:30:50.915Z,62.70
2017-12-05T09:31:50.886Z,56.20
2017-12-05T09:32:50.856Z,58.90
2017-12-05T09:33:50.835Z,58.40
2017-12-05T09:34:50.805Z,57.60
2017-12-05T09:35:50.787Z,58.80
2017-12-05T09:36:50.751Z,62.50
2017-12-05T09:37:50.744Z,60.50
2017-12-05T09:38:50.695Z,57.80
2017-12-05T09:39:50.682Z,54.70
2017-12-05T09:40:50.642Z,58.40
2017-12-05T09:41:50.625Z,59.00
2017-12-05T09:42:50.586Z,59.30
2017-12-05T09:43:50.564Z,60.90
2017-12-05T09:44:50.546Z,62.70
2017-12-05T09:45:50.517Z,55.10
2017-12-05T09:46:50.487Z,59.90
2017-12-05T09:47:50.453Z,57.10
2017-12-05T09:48:50.432Z,62.30
2017-12-05T09:49:50.411Z,60.70
2017-12-05T09:50:50.374Z,61.30
2017-12-05T09:51:51.353Z,61.00
2017-12-05T09:52:50.328Z,60.90
2017-12-05T09:53:50.299Z,63.90
2017-12-05T09:54:50.278Z,64.80
2017-12-05T09:55:50.251Z,57.00
2017-12-05T09:56:50.226Z,54.60
2017-12-05T09:57:50.184Z,59.00
2017-12-05T09:58:50.169Z,58.10
2017-12-05T09:59:50.143Z,58.40
2017-12-05T10:00:50.116Z,58.30
2017-12-05T10:01:51.086Z,56.70
2017-12-05T10:02:50.050Z,59.20
2017-12-05T10:03:50.039Z,58.60
2017-12-05T10:04:49.998Z,58.20
2017-12-05T10:05:49.989Z,57.00
2017-12-05T10:06:49.951Z,58.20
2017-12-05T10:07:49.931Z,59.00
2017-12-05T10:08:49.894Z,59.30
2017-12-05T10:09:49.873Z,60.00
2017-12-05T10:10:49.841Z,58.40
2017-12-05T10:11:49.812Z,54.20
2017-12-05T10:12:49.786Z,58.40
2017-12-05T10:13:49.771Z,56.20
2017-12-05T10:14:49.733Z,55.20
2017-12-05T10:15:49.706Z,58.30
2017-12-05T10:16:49.681Z,59.60
2017-12-05T10:17:49.650Z,57.40
2017-12-05T10:18:49.625Z,56.20
2017-12-05T10:19:49.600Z,56.10
2017-12-05T10:20:49.580Z,54.50
2017-12-05T10:21:49.549Z,55.90
2017-12-05T10:22:49.519Z,56.10
2017-12-05T10:23:49.495Z,55.50
2017-12-05T10:24:49.462Z,57.20
2017-12-05T10:25:49.437Z,56.70
2017-12-05T10:26:49.414Z,60.00
2017-12-05T10:27:49.410Z,56.20
2017-12-05T10:28:49.353Z,57.10
2017-12-05T10:29:49.327Z,56.70
2017-12-05T10:30:49.307Z,53.50
2017-12-05T10:31:50.274Z,53.20
2017-12-05T10:32:49.253Z,56.60
2017-12-05T10:33:49.232Z,54.40
2017-12-05T10:34:49.197Z,58.60
2017-12-05T10:35:49.179Z,55.50
2017-12-05T10:36:49.151Z,57.00
2017-12-05T10:37:49.129Z,54.90
2017-12-05T10:38:49.087Z,53.50
2017-12-05T10:39:49.067Z,53.90
2017-12-05T10:40:49.031Z,53.00
2017-12-05T10:41:49.008Z,52.40
2017-12-05T10:42:48.985Z,54.20
2017-12-05T10:43:48.957Z,55.20
2017-12-05T10:44:48.936Z,50.90
2017-12-05T10:45:48.905Z,52.60
2017-12-05T10:46:48.875Z,50.00
2017-12-05T10:47:48.845Z,46.70
2017-12-05T10:48:48.830Z,49.20
2017-12-05T10:49:48.786Z,51.40
2017-12-05T10:50:48.774Z,50.10
2017-12-05T10:51:48.736Z,49.90
2017-12-05T10:52:48.715Z,49.60
2017-12-05T10:53:48.685Z,51.70
2017-12-05T10:54:48.667Z,51.80
2017-12-05T10:55:48.645Z,50.10
2017-12-05T10:56:48.617Z,47.90
2017-12-05T10:57:48.581Z,49.50
2017-12-05T10:58:48.554Z,45.20
2017-12-05T10:59:48.531Z,47.50
2017-12-05T11:00:48.498Z,47.50
2017-12-05T11:01:49.474Z,45.80
2017-12-05T11:02:48.440Z,44.00
2017-12-05T11:03:48.425Z,43.70
2017-12-05T11:04:48.407Z,46.80
2017-12-05T11:05:48.372Z,45.90
2017-12-05T11:06:48.347Z,43.00
2017-12-05T11:07:48.382Z,45.70
2017-12-05T11:08:48.286Z,43.80
2017-12-05T11:09:48.254Z,46.80
2017-12-05T11:10:48.234Z,45.80
2017-12-05T11:11:48.213Z,43.70
2017-12-05T11:12:48.175Z,42.50
2017-12-05T11:13:48.162Z,44.30
2017-12-05T11:14:48.127Z,44.70
2017-12-05T11:15:48.107Z,42.90
2017-12-05T11:16:48.085Z,44.00
2017-12-05T11:17:48.068Z,45.90
2017-12-05T11:18:48.011Z,45.50
2017-12-05T11:19:47.998Z,45.10
2017-12-05T11:20:47.962Z,46.00
2017-12-05T11:21:47.933Z,46.60
2017-12-05T11:22:47.928Z,43.20
2017-12-05T11:23:47.886Z,43.10
2017-12-05T11:24:47.868Z,43.70
2017-12-05T11:25:47.828Z,42.90
2017-12-05T11:26:47.811Z,43.40
2017-12-05T11:27:47.786Z,43.40
2017-12-05T11:28:47.752Z,41.60
2017-12-05T11:29:47.728Z,44.70
2017-12-05T11:30:47.736Z,45.00
2017-12-05T11:31:48.677Z,44.90
2017-12-05T11:32:47.643Z,44.60
2017-12-05T11:33:47.626Z,42.70
2017-12-05T11:34:47.593Z,41.90
2017-12-05T11:35:47.570Z,43.90
2017-12-05T11:36:47.533Z,41.80
2017-12-05T11:37:47.518Z,41.80
2017-12-05T11:38:47.483Z,40.70
2017-12-05T11:39:47.466Z,41.10
2017-12-05T11:40:47.432Z,40.00
2017-12-05T11:41:47.407Z,39.40
2017-12-05T11:42:47.382Z,37.90
2017-12-05T11:43:47.351Z,39.70
2017-12-05T11:44:47.336Z,38.60
2017-12-05T11:45:47.304Z,37.70
2017-12-05T11:46:47.267Z,37.80
2017-12-05T11:47:47.245Z,40.10
2017-12-05T11:48:47.218Z,39.30
2017-12-05T11:49:48.186Z,39.10
2017-12-05T11:50:47.165Z,37.80
2017-12-05T11:51:47.141Z,39.30
2017-12-05T11:52:47.114Z,37.20
2017-12-05T11:53:47.084Z,37.60
2017-12-05T11:54:47.056Z,38.20
2017-12-05T11:55:47.038Z,38.80
2017-12-05T11:56:47.004Z,37.70
2017-12-05T11:57:46.974Z,38.50
2017-12-05T11:58:46.955Z,37.40
2017-12-05T11:59:46.917Z,37.60
2017-12-05T12:00:46.901Z,35.30
2017-12-05T12:01:46.871Z,38.50
2017-12-05T12:02:46.844Z,37.10
2017-12-05T12:03:46.816Z,37.90
2017-12-05T12:04:46.788Z,37.10
2017-12-05T12:05:46.763Z,34.50
2017-12-05T12:06:46.733Z,37.20
2017-12-05T12:07:46.704Z,39.40
2017-12-05T12:08:46.688Z,37.10
2017-12-05T12:09:46.654Z,36.50
2017-12-05T12:10:46.630Z,38.00
2017-12-05T12:11:46.596Z,36.50
2017-12-05T12:12:46.595Z,34.20
2017-12-05T12:13:46.553Z,33.40
2017-12-05T12:14:46.536Z,36.10
2017-12-05T12:15:46.504Z,35.60
2017-12-05T12:16:46.463Z,36.40
2017-12-05T12:17:46.453Z,35.60
2017-12-05T12:18:46.419Z,35.30
2017-12-05T12:19:46.390Z,35.40
2017-12-05T12:20:46.371Z,33.90
2017-12-05T12:21:46.339Z,36.70
2017-12-05T12:22:46.314Z,34.90
2017-12-05T12:23:46.283Z,33.00
2017-12-05T12:24:46.262Z,34.50
2017-12-05T12:25:46.234Z,35.10
2017-12-05T12:26:46.199Z,36.10
2017-12-05T12:27:46.182Z,30.90
2017-12-05T12:28:46.152Z,33.10
2017-12-05T12:29:46.152Z,35.30
2017-12-05T12:30:46.087Z,34.90
2017-12-05T12:31:46.071Z,36.20
2017-12-05T12:32:46.055Z,34.00
2017-12-05T12:33:46.011Z,34.70
2017-12-05T12:34:45.987Z,33.90
2017-12-05T12:35:45.960Z,33.20
2017-12-05T12:36:45.937Z,32.10
2017-12-05T12:37:45.907Z,33.40
2017-12-05T12:38:45.881Z,33.00
2017-12-05T12:39:45.861Z,32.30
2017-12-05T12:40:45.834Z,35.90
2017-12-05T12:41:46.801Z,38.00
2017-12-05T12:42:45.774Z,35.80
2017-12-05T12:43:45.748Z,34.60
2017-12-05T12:44:45.723Z,37.10
2017-12-05T12:45:45.700Z,34.40
2017-12-05T12:46:45.672Z,36.00
2017-12-05T12:47:45.675Z,36.30
2017-12-05T12:48:45.621Z,33.90
2017-12-05T12:49:45.586Z,33.30
2017-12-05T12:50:45.562Z,30.50
2017-12-05T12:51:45.530Z,32.00